Terminal Aerodrome Forecast
Issued by NWS Wilmington, OH

Current Version | Previous Version | Text Only | Print | Product List | Glossary Off
Versions: 1 2 3 4 5 6 7 8 9 10 11 12 13 14 15 16 17 18 19

000
FTUS41 KILN 211200 AAA
TAFILN
TAF AMD
KILN 211254Z 2113/2212 02008KT P6SM OVC028
      TEMPO 2113/2115 BKN012
     FM211600 36008KT P6SM BKN035
     FM220100 32012KT P6SM SCT040
     FM220600 28005KT P6SM FEW040=

USA.gov is the U.S. government's official web portal to all federal, state and local government web resources and services.